Time;durP1;ratioP1;P1;durP2;ratioP2;P2;SDS_P1;SDS_P2;PMS_P1;PMS_P2;Temp;Humidity;BMP_temperature;BMP_pressure;BME280_temperature;BME280_humidity;BME280_pressure;Samples;Min_cycle;Max_cycle;Signal;HPM_P1;HPM_P2
2021/12/25 00:01:33;;;;;;;12.82;7.50;;;;;;;-4.62;44.66;97659.09;3301606;30;20058;-72
2021/12/25 00:03:15;;;;;;;20.77;9.20;;;;;;;-4.61;44.81;97655.53;3300642;30;20047;-73
2021/12/25 00:04:57;;;;;;;18.35;9.15;;;;;;;-4.59;44.86;97653.59;3301874;29;20074;-71
2021/12/25 00:06:38;;;;;;;12.50;7.78;;;;;;;-4.58;44.91;97646.63;3292096;29;20492;-71
2021/12/25 00:08:25;;;;;;;13.02;8.55;;;;;;;-4.53;44.80;97647.00;3299176;30;20053;-71
2021/12/25 00:10:08;;;;;;;15.18;8.35;;;;;;;-4.54;44.72;97643.59;3301735;29;20053;-70
2021/12/25 00:11:53;;;;;;;16.17;8.65;;;;;;;-4.57;44.84;97625.66;3301067;29;20552;-70
2021/12/25 00:13:38;;;;;;;16.48;7.00;;;;;;;-4.55;44.77;97626.34;3308377;29;20070;-70
2021/12/25 00:15:19;;;;;;;12.57;7.32;;;;;;;-4.59;45.09;97614.63;3307223;29;20506;-72
2021/12/25 00:17:00;;;;;;;16.23;9.10;;;;;;;-4.57;45.02;97617.88;3314300;29;20049;-72
2021/12/25 00:18:41;;;;;;;15.40;8.00;;;;;;;-4.56;44.94;97614.31;3307647;29;20045;-71
2021/12/25 00:20:23;;;;;;;12.57;8.10;;;;;;;-4.55;45.09;97615.94;3302130;29;20156;-73
2021/12/25 00:22:03;;;;;;;15.48;7.75;;;;;;;-4.55;45.05;97612.53;3300306;30;20116;-70
2021/12/25 00:23:44;;;;;;;16.13;8.43;;;;;;;-4.67;45.47;97580.78;3300514;29;20093;-73
2021/12/25 00:25:25;;;;;;;12.98;7.32;;;;;;;-4.61;45.45;97585.38;3307926;29;20049;-71
2021/12/25 00:27:21;;;;;;;17.33;7.85;;;;;;;-4.68;45.54;97573.94;3306518;29;20141;-70
2021/12/25 00:29:18;;;;;;;9.43;6.93;;;;;;;-4.68;45.51;97574.75;3306360;29;20126;-70
2021/12/25 00:33:06;;;;;;;17.35;7.68;;;;;;;-4.68;45.33;97547.94;3303559;29;20043;-70
2021/12/25 00:34:51;;;;;;;13.32;7.43;;;;;;;-4.69;45.28;97567.13;3312314;29;20560;-71
2021/12/25 00:36:33;;;;;;;14.77;8.65;;;;;;;-4.72;45.42;97557.03;3299912;29;20047;-71
2021/12/25 00:38:18;;;;;;;17.10;7.85;;;;;;;-4.73;45.49;97557.97;3300639;29;21727;-71
2021/12/25 00:40:07;;;;;;;17.33;8.35;;;;;;;-4.73;45.55;97548.38;3301373;29;20142;-72
2021/12/25 00:41:49;;;;;;;17.27;8.00;;;;;;;-4.73;45.59;97532.00;3300532;29;20486;-72
2021/12/25 00:43:29;;;;;;;11.68;6.93;;;;;;;-4.76;45.49;97529.69;3299985;29;20043;-71
2021/12/25 00:45:12;;;;;;;16.55;8.35;;;;;;;-4.78;45.85;97519.44;3300673;29;20422;-71
2021/12/25 00:46:53;;;;;;;12.80;7.30;;;;;;;-4.76;45.78;97527.09;3300854;29;20117;-72
2021/12/25 00:48:34;;;;;;;12.35;7.47;;;;;;;-4.76;45.73;97507.13;3298773;29;20047;-72
2021/12/25 00:50:15;;;;;;;13.63;8.23;;;;;;;-4.75;45.96;97500.13;3300157;29;20058;-72
2021/12/25 00:51:56;;;;;;;11.43;6.95;;;;;;;-4.73;45.91;97495.63;3302178;29;20047;-73
2021/12/25 00:53:37;;;;;;;13.70;6.65;;;;;;;-4.74;46.01;97486.19;3300445;29;20392;-73
2021/12/25 00:55:18;;;;;;;12.15;7.18;;;;;;;-4.68;45.84;97501.16;3300006;30;20050;-73
2021/12/25 00:56:59;;;;;;;23.65;8.20;;;;;;;-4.70;45.96;97477.97;3301180;29;20054;-74
2021/12/25 00:58:41;;;;;;;17.00;8.65;;;;;;;-4.69;45.75;97489.97;3311768;29;20067;-72
2021/12/25 01:00:22;;;;;;;16.55;8.07;;;;;;;-4.71;46.07;97485.91;3301733;29;20055;-72
2021/12/25 01:02:03;;;;;;;12.60;7.27;;;;;;;-4.72;45.92;97494.66;3301466;29;20138;-73
2021/12/25 01:03:44;;;;;;;12.02;7.25;;;;;;;-4.82;45.88;97495.56;3295414;30;20039;-74
2021/12/25 01:05:25;;;;;;;11.93;6.50;;;;;;;-4.83;45.91;97493.09;3298262;30;20108;-72
2021/12/25 01:07:06;;;;;;;13.85;7.53;;;;;;;-4.90;46.00;97466.13;3300682;30;20047;-71
2021/12/25 01:08:47;;;;;;;19.08;8.32;;;;;;;-4.83;46.06;97482.72;3300066;29;20051;-70
2021/12/25 01:10:33;;;;;;;10.40;5.93;;;;;;;-4.87;46.05;97456.25;3301804;29;20047;-72
2021/12/25 01:12:18;;;;;;;10.77;7.03;;;;;;;-4.78;46.23;97461.47;3305355;29;20511;-72
2021/12/25 01:14:06;;;;;;;13.02;7.15;;;;;;;-4.75;45.96;97458.56;3314604;29;20051;-72
2021/12/25 01:16:28;;;;;;;14.57;6.20;;;;;;;-4.77;45.97;97435.38;3312354;29;20062;-72
2021/12/25 01:31:35;;;;;;;13.00;8.80;;;;;;;-4.80;46.00;97398.47;3304329;29;20070;-71
2021/12/25 01:47:59;;;;;;;16.67;7.35;;;;;;;-4.69;46.34;97395.63;3311961;29;20182;-69
2021/12/25 01:49:41;;;;;;;11.70;7.32;;;;;;;-4.71;46.24;97390.56;3303017;29;20043;-70
2021/12/25 01:51:22;;;;;;;12.63;7.97;;;;;;;-4.72;46.75;97407.13;3299981;29;20157;-69
2021/12/25 01:53:03;;;;;;;15.00;7.90;;;;;;;-4.72;46.50;97380.34;3299483;29;20231;-70
2021/12/25 01:54:44;;;;;;;14.70;8.05;;;;;;;-4.73;46.84;97374.31;3300903;29;20181;-69
2021/12/25 01:56:25;;;;;;;14.88;7.70;;;;;;;-4.72;46.50;97382.94;3308972;29;20064;-69
2021/12/25 01:58:07;;;;;;;17.77;7.35;;;;;;;-4.72;46.84;97367.34;3294258;30;20116;-69
2021/12/25 01:59:48;;;;;;;21.75;7.97;;;;;;;-4.68;46.61;97363.44;3307764;29;20050;-69
2021/12/25 02:01:29;;;;;;;16.17;7.60;;;;;;;-4.67;46.82;97368.50;3311131;29;20070;-70
2021/12/25 02:03:11;;;;;;;13.45;8.48;;;;;;;-4.66;46.87;97364.13;3311733;29;20062;-71
2021/12/25 02:04:52;;;;;;;15.20;7.57;;;;;;;-4.67;46.88;97376.31;3304470;29;20040;-70
2021/12/25 02:06:33;;;;;;;10.82;6.65;;;;;;;-4.68;46.71;97346.06;3299492;29;20906;-70
2021/12/25 02:08:14;;;;;;;13.52;7.25;;;;;;;-4.68;46.88;97340.06;3299404;30;20055;-70
2021/12/25 02:09:55;;;;;;;13.88;7.82;;;;;;;-4.68;46.80;97345.25;3303673;29;20046;-70
2021/12/25 02:11:36;;;;;;;13.80;7.90;;;;;;;-4.66;47.18;97354.53;3308781;29;20039;-70
2021/12/25 02:13:19;;;;;;;17.63;9.98;;;;;;;-4.62;46.83;97323.84;3299065;30;20349;-71
2021/12/25 02:15:09;;;;;;;13.02;7.93;;;;;;;-4.57;47.09;97331.97;3301394;29;20050;-71
2021/12/25 02:16:58;;;;;;;15.80;7.88;;;;;;;-4.66;46.86;97325.13;3300214;30;20047;-71
2021/12/25 02:21:12;;;;;;;21.60;8.82;;;;;;;-4.57;46.89;97321.59;3304701;29;20075;-71
2021/12/25 02:22:59;;;;;;;14.43;7.63;;;;;;;-4.58;46.99;97303.56;3298896;29;20090;-70
2021/12/25 02:24:40;;;;;;;14.85;7.97;;;;;;;-4.63;46.92;97306.63;3299231;29;20139;-72
2021/12/25 02:26:24;;;;;;;13.13;7.40;;;;;;;-4.65;47.19;97298.16;3298997;30;20043;-72
2021/12/25 02:28:05;;;;;;;13.65;6.60;;;;;;;-4.62;47.33;97298.69;3300056;30;20051;-72
2021/12/25 02:29:45;;;;;;;17.77;9.60;;;;;;;-4.61;47.36;97296.91;3299958;29;20050;-71
2021/12/25 02:31:26;;;;;;;18.02;7.63;;;;;;;-4.58;47.23;97291.38;3298902;30;20047;-71
2021/12/25 02:33:16;;;;;;;18.85;7.95;;;;;;;-4.54;47.06;97289.25;3492048;27;1364454;-73
2021/12/25 02:34:57;;;;;;;12.65;6.97;;;;;;;-4.59;47.38;97263.78;3497116;28;20044;-72
2021/12/25 02:36:38;;;;;;;17.42;7.32;;;;;;;-4.52;47.28;97272.53;3501650;28;20148;-71
2021/12/25 02:38:19;;;;;;;13.15;7.63;;;;;;;-4.53;47.13;97273.53;3530376;28;20095;-73
2021/12/25 02:40:00;;;;;;;16.33;8.23;;;;;;;-4.53;47.26;97264.91;3529101;28;20424;-72
2021/12/25 02:41:41;;;;;;;14.48;7.03;;;;;;;-4.53;47.21;97281.31;3485886;28;20068;-71
2021/12/25 02:43:23;;;;;;;19.80;8.90;;;;;;;-4.52;47.46;97271.72;3490291;28;20069;-71
2021/12/25 02:45:05;;;;;;;17.45;8.52;;;;;;;-4.52;47.46;97246.53;3488027;28;20036;-71
2021/12/25 02:46:48;;;;;;;;;;;;;;;-4.39;47.39;97265.13;3516377;28;20042;-70
2021/12/25 02:48:29;;;;;;;14.65;8.73;;;;;;;-4.43;47.08;97260.38;3518270;28;20033;-72
2021/12/25 02:50:11;;;;;;;18.77;7.82;;;;;;;-4.45;47.14;97241.53;3513637;28;20043;-71
2021/12/25 02:51:52;;;;;;;15.32;7.70;;;;;;;-4.50;47.53;97243.81;3503228;28;20126;-71
2021/12/25 02:53:33;;;;;;;12.43;8.23;;;;;;;-4.50;47.58;97265.41;3490496;28;20052;-71
2021/12/25 02:55:14;;;;;;;14.48;7.97;;;;;;;-4.49;47.52;97248.84;3501381;28;20037;-71
2021/12/25 02:56:55;;;;;;;16.02;8.10;;;;;;;-4.51;47.30;97247.38;3518736;28;20122;-72
2021/12/25 02:58:36;;;;;;;14.93;9.07;;;;;;;-4.54;47.57;97253.72;3507814;28;20035;-71
2021/12/25 03:00:26;;;;;;;14.85;8.80;;;;;;;-4.51;47.55;97244.78;3530037;28;20031;-72
2021/12/25 03:02:14;;;;;;;12.13;7.55;;;;;;;-4.52;47.75;97230.94;3522758;28;20466;-71
2021/12/25 03:03:54;;;;;;;16.75;8.25;;;;;;;-4.49;47.69;97230.66;3535691;28;20402;-71
2021/12/25 03:05:37;;;;;;;15.23;7.97;;;;;;;-4.48;47.71;97229.66;3520732;28;20040;-73
2021/12/25 03:07:18;;;;;;;16.00;9.07;;;;;;;-4.46;47.39;97224.31;3513560;28;20767;-72
2021/12/25 03:09:01;;;;;;;22.60;8.98;;;;;;;-4.43;47.58;97226.59;3503977;28;20047;-72
2021/12/25 03:10:42;;;;;;;12.75;7.80;;;;;;;-4.42;47.67;97220.41;3511826;28;20488;-73
2021/12/25 03:12:32;;;;;;;15.87;8.30;;;;;;;-4.39;47.64;97231.31;3520105;28;20048;-73
2021/12/25 03:14:31;;;;;;;13.55;7.25;;;;;;;-4.38;47.33;97221.72;3520638;28;20282;-73
2021/12/25 03:16:14;;;;;;;17.02;7.38;;;;;;;-4.37;47.43;97225.94;3520541;28;21056;-71
2021/12/25 03:17:56;;;;;;;16.30;8.50;;;;;;;-4.39;47.50;97225.28;3505944;28;20489;-72
2021/12/25 03:19:37;;;;;;;16.20;9.35;;;;;;;-4.39;47.50;97233.91;3521312;28;20139;-71
2021/12/25 03:21:18;;;;;;;14.73;7.95;;;;;;;-4.36;47.56;97219.78;3514615;28;20169;-71
2021/12/25 03:23:00;;;;;;;12.00;7.30;;;;;;;-4.38;47.55;97217.34;3506020;28;20086;-70
2021/12/25 03:24:41;;;;;;;15.40;8.18;;;;;;;-4.35;47.32;97207.59;3503721;28;20036;-71
2021/12/25 03:26:21;;;;;;;14.07;7.75;;;;;;;-4.36;47.47;97208.56;3518419;28;20056;-72
2021/12/25 03:28:02;;;;;;;14.40;7.68;;;;;;;-4.35;47.68;97210.19;3521530;28;20072;-71
2021/12/25 03:29:43;;;;;;;14.75;8.07;;;;;;;-4.34;47.28;97209.22;3507129;28;20028;-72
2021/12/25 03:31:24;;;;;;;13.80;8.18;;;;;;;-4.34;47.62;97204.81;3511416;28;20046;-71
2021/12/25 03:33:10;;;;;;;16.87;8.80;;;;;;;-4.32;47.74;97204.66;3515314;28;20063;-71
2021/12/25 03:34:50;;;;;;;16.75;8.57;;;;;;;-4.33;47.28;97205.66;3512907;28;20040;-71
2021/12/25 03:36:31;;;;;;;16.43;9.30;;;;;;;-4.33;47.60;97192.66;3507289;28;20044;-71
2021/12/25 03:38:14;;;;;;;15.85;9.07;;;;;;;-4.36;47.63;97196.38;3506229;28;20041;-71
2021/12/25 03:39:55;;;;;;;16.70;8.27;;;;;;;-4.37;47.57;97181.75;3498353;28;20044;-71
2021/12/25 03:41:36;;;;;;;14.80;7.82;;;;;;;-4.33;47.52;97188.25;3493891;28;20484;-72
2021/12/25 03:43:18;;;;;;;13.80;8.32;;;;;;;-4.33;47.55;97175.25;3495614;28;20044;-71
2021/12/25 03:44:58;;;;;;;16.85;7.75;;;;;;;-4.33;47.50;97175.25;3482788;28;20048;-71
2021/12/25 03:46:40;;;;;;;14.43;7.57;;;;;;;-4.32;47.59;97171.69;3483823;28;20411;-72
2021/12/25 03:53:09;;;;;;;14.02;7.82;;;;;;;-4.28;47.74;97161.78;3504438;28;20037;-71
2021/12/25 03:58:44;;;;;;;16.17;7.68;;;;;;;-4.16;47.50;97165.66;3417124;28;20058;-72
2021/12/25 04:00:30;;;;;;;18.30;8.70;;;;;;;-4.15;47.22;97153.47;3437601;28;20549;-71
2021/12/25 04:02:18;;;;;;;13.95;7.40;;;;;;;-4.14;47.30;97162.91;3462435;28;20118;-72
2021/12/25 04:04:16;;;;;;;13.68;7.80;;;;;;;-4.12;47.35;97146.16;3495823;28;20454;-73
2021/12/25 04:06:07;;;;;;;13.55;7.47;;;;;;;-4.08;47.24;97144.03;3486744;28;20040;-71
2021/12/25 04:09:30;;;;;;;11.40;7.30;;;;;;;-4.09;47.43;97138.00;3497434;28;20081;-71
2021/12/25 04:11:25;;;;;;;12.45;7.07;;;;;;;-4.07;47.41;97130.88;3500458;28;20490;-73
2021/12/25 04:13:11;;;;;;;14.82;8.18;;;;;;;-4.08;47.22;97137.06;3510164;28;20056;-71
2021/12/25 04:14:51;;;;;;;16.30;7.35;;;;;;;-4.10;47.42;97131.19;3489451;28;20063;-71
2021/12/25 04:16:32;;;;;;;10.75;7.28;;;;;;;-4.09;47.32;97121.59;3501226;28;20113;-72
2021/12/25 04:18:14;;;;;;;17.38;8.68;;;;;;;-4.04;47.43;97130.53;3507531;28;20035;-72
2021/12/25 04:19:55;;;;;;;10.63;7.25;;;;;;;-4.02;47.53;97131.19;3510936;28;20487;-72
2021/12/25 04:21:41;;;;;;;18.00;9.02;;;;;;;-4.00;47.45;97123.19;3509953;28;20044;-72
2021/12/25 04:23:26;;;;;;;10.93;6.65;;;;;;;-3.98;47.27;97122.06;3509081;28;20466;-72
2021/12/25 04:25:07;;;;;;;15.23;8.35;;;;;;;-3.97;47.38;97117.69;3500716;28;20132;-72
2021/12/25 04:26:49;;;;;;;13.85;7.68;;;;;;;-3.96;47.13;97104.50;3482331;28;20499;-70
2021/12/25 04:28:42;;;;;;;;;;;;;;;-3.87;47.30;97094.06;3494969;28;20067;-71
2021/12/25 05:05:00;;;;;;;13.63;7.07;;;;;;;-4.00;47.65;97068.56;3440588;28;20053;-72
2021/12/25 05:06:51;;;;;;;15.27;7.47;;;;;;;-4.03;47.44;97064.50;3454193;28;20188;-72
2021/12/25 05:08:32;;;;;;;15.48;8.20;;;;;;;-4.04;47.57;97062.91;3497495;28;20052;-72
2021/12/25 05:10:12;;;;;;;11.10;6.68;;;;;;;-4.00;47.55;97064.19;3514543;28;20075;-73
2021/12/25 05:11:53;;;;;;;17.38;7.20;;;;;;;-4.01;47.47;97061.75;3510302;28;20047;-70
2021/12/25 05:13:35;;;;;;;11.65;7.45;;;;;;;-4.01;47.43;97061.75;3501822;28;20040;-71
2021/12/25 05:15:16;;;;;;;13.02;7.82;;;;;;;-4.02;47.84;97052.34;3507140;28;20040;-71
2021/12/25 05:16:56;;;;;;;12.20;7.60;;;;;;;-4.01;47.64;97057.34;3498551;28;20062;-71
2021/12/25 05:18:37;;;;;;;10.13;6.47;;;;;;;-3.99;47.78;97058.00;3519092;28;20659;-71
2021/12/25 05:20:18;;;;;;;14.63;7.25;;;;;;;-3.97;47.83;97053.47;3495287;28;20044;-72
2021/12/25 05:22:02;;;;;;;10.80;6.70;;;;;;;-3.95;47.75;97051.50;3468106;28;20045;-71
2021/12/25 05:23:43;;;;;;;13.40;6.25;;;;;;;-3.93;47.43;97053.13;3488503;28;20118;-71
2021/12/25 05:25:27;;;;;;;13.52;7.30;;;;;;;-3.93;47.58;97047.91;3479832;28;20476;-72
2021/12/25 05:27:13;;;;;;;9.73;6.38;;;;;;;-3.92;47.90;97044.31;3479845;28;20589;-71
2021/12/25 05:28:59;;;;;;;11.85;7.43;;;;;;;-3.90;47.85;97050.97;3493570;28;20123;-72
2021/12/25 05:30:43;;;;;;;14.15;7.18;;;;;;;-3.84;47.69;97029.50;3504062;28;20043;-73
2021/12/25 05:32:42;;;;;;;11.23;6.82;;;;;;;-3.77;47.54;97034.81;3509506;28;20090;-71
2021/12/25 05:34:40;;;;;;;14.43;7.30;;;;;;;-3.70;47.60;97040.97;3500976;28;20071;-72
2021/12/25 05:36:38;;;;;;;9.95;6.93;;;;;;;-3.68;47.67;97036.41;3523676;28;20054;-72
2021/12/25 05:38:37;;;;;;;15.77;7.05;;;;;;;-3.67;47.55;97030.22;3496282;28;20048;-72
2021/12/25 05:40:39;;;;;;;10.40;6.18;;;;;;;-3.67;47.81;97027.63;3495960;28;20861;-71
2021/12/25 05:42:22;;;;;;;11.75;7.65;;;;;;;-3.68;47.50;97041.63;3496260;28;20044;-71
2021/12/25 05:44:03;;;;;;;12.10;7.53;;;;;;;-3.68;47.44;97031.22;3471672;28;20418;-71
2021/12/25 05:46:04;;;;;;;10.07;6.72;;;;;;;-3.66;47.79;97020.66;3474498;28;20518;-71
2021/12/25 05:47:48;;;;;;;16.77;7.82;;;;;;;-3.66;47.78;97018.84;3481332;28;20134;-72
2021/12/25 05:49:47;;;;;;;9.93;6.75;;;;;;;-3.61;47.44;97006.13;3503609;28;20561;-72
2021/12/25 05:51:35;;;;;;;9.07;6.35;;;;;;;-3.58;47.87;97010.19;3507278;28;20032;-71
2021/12/25 05:53:51;;;;;;;11.38;6.68;;;;;;;-3.53;47.72;97011.28;3448545;28;20045;-71
2021/12/25 05:55:51;;;;;;;10.00;6.00;;;;;;;-3.53;47.56;97008.69;3463062;28;20056;-72
2021/12/25 05:57:53;;;;;;;10.63;6.00;;;;;;;-3.52;47.75;97007.69;3516147;28;20459;-77
2021/12/25 05:59:52;;;;;;;10.02;6.38;;;;;;;-3.51;47.71;97009.31;3508562;28;20109;-74
2021/12/25 06:02:03;;;;;;;10.85;6.47;;;;;;;-3.51;47.88;96998.91;3508490;28;20090;-77
2021/12/25 06:03:45;;;;;;;12.35;6.55;;;;;;;-3.52;47.88;96984.25;3509080;28;20092;-73
2021/12/25 06:05:26;;;;;;;13.80;7.47;;;;;;;-3.47;47.76;96995.97;3496369;28;20037;-75
2021/12/25 06:07:07;;;;;;;12.63;6.70;;;;;;;-3.41;47.92;96992.66;3514016;28;20074;-76
2021/12/25 06:08:48;;;;;;;13.15;8.02;;;;;;;-3.41;47.75;96990.06;3509288;28;20161;-77
2021/12/25 06:10:29;;;;;;;10.70;6.22;;;;;;;-3.37;47.50;96991.34;3503350;28;20032;-76
2021/12/25 06:12:11;;;;;;;10.68;6.95;;;;;;;-3.37;47.68;96994.75;3491975;28;20113;-75
2021/12/25 06:14:04;;;;;;;9.35;6.13;;;;;;;-3.37;47.66;96981.72;3480996;28;20085;-74
2021/12/25 06:15:53;;;;;;;9.52;6.28;;;;;;;-3.38;47.82;96977.53;3491224;28;20040;-75
2021/12/25 06:17:57;;;;;;;9.68;6.22;;;;;;;-3.38;47.85;96979.28;3521152;28;20040;-75
2021/12/25 06:19:49;;;;;;;9.32;6.47;;;;;;;-3.36;47.95;96980.72;3504651;28;20036;-74
2021/12/25 06:21:56;;;;;;;13.45;7.15;;;;;;;-3.33;47.96;96969.16;3486036;28;20048;-74
2021/12/25 06:23:50;;;;;;;14.13;6.97;;;;;;;-3.30;47.85;96971.44;3501819;28;20139;-75
2021/12/25 06:25:55;;;;;;;13.52;7.60;;;;;;;-3.25;47.92;96973.50;3495830;28;20040;-75
2021/12/25 06:27:38;;;;;;;14.43;7.32;;;;;;;-3.23;47.74;96969.75;3507132;28;20040;-75
2021/12/25 06:29:36;;;;;;;7.38;5.18;;;;;;;-3.20;47.85;96972.00;3496562;28;20086;-75
2021/12/25 06:31:37;;;;;;;10.95;6.63;;;;;;;-3.17;47.84;96976.88;3487416;28;20048;-75
2021/12/25 06:33:40;;;;;;;11.30;6.32;;;;;;;-3.17;47.63;96969.06;3471794;28;20135;-75
2021/12/25 06:35:40;;;;;;;9.30;6.43;;;;;;;-3.18;47.82;96964.81;3491499;28;20084;-75
2021/12/25 06:37:46;;;;;;;12.73;6.97;;;;;;;-3.13;47.69;96972.91;3466887;28;20052;-76
2021/12/25 06:39:52;;;;;;;10.90;5.78;;;;;;;-3.10;47.43;96963.94;3494888;28;20481;-74
2021/12/25 06:41:38;;;;;;;13.93;6.88;;;;;;;-3.08;47.92;96957.56;3477831;28;20084;-75
2021/12/25 06:43:21;;;;;;;13.50;6.88;;;;;;;-3.07;47.85;96945.38;3485028;28;20048;-75
2021/12/25 06:45:03;;;;;;;12.48;7.45;;;;;;;-3.04;47.68;96962.44;3495338;28;20040;-76
2021/12/25 06:46:44;;;;;;;12.02;7.13;;;;;;;-3.03;47.90;96956.25;3492131;28;20039;-76
2021/12/25 06:48:26;;;;;;;8.38;6.25;;;;;;;-2.99;47.59;96950.50;3489532;28;20041;-76
2021/12/25 06:50:25;;;;;;;14.73;8.10;;;;;;;-2.94;47.61;96952.59;3484964;28;20127;-77
2021/12/25 06:52:24;;;;;;;14.63;7.28;;;;;;;-2.93;47.57;96956.81;3493359;28;20052;-77
2021/12/25 06:54:14;;;;;;;15.00;6.50;;;;;;;-2.92;47.49;96954.03;3468015;28;20063;-76
2021/12/25 06:56:05;;;;;;;11.15;6.75;;;;;;;-2.90;47.73;96956.44;3479704;28;20045;-76
2021/12/25 06:57:59;;;;;;;14.55;7.57;;;;;;;-2.84;47.74;96945.31;3467385;28;20057;-76
2021/12/25 06:59:40;;;;;;;11.40;7.28;;;;;;;-2.81;47.73;96949.34;3473226;28;20060;-75
2021/12/25 07:01:21;;;;;;;14.13;8.10;;;;;;;-2.84;47.80;96950.50;3477114;28;20120;-75
2021/12/25 07:03:02;;;;;;;10.27;6.50;;;;;;;-2.77;47.82;96948.81;3484966;28;20060;-75
2021/12/25 07:05:01;;;;;;;11.77;7.22;;;;;;;-2.76;47.61;96947.84;3492234;28;20044;-75
2021/12/25 07:07:02;;;;;;;14.48;7.70;;;;;;;-2.73;47.77;96944.88;3469411;28;20037;-76
2021/12/25 07:09:01;;;;;;;12.35;7.03;;;;;;;-2.71;47.39;96940.31;3468210;28;20047;-75
2021/12/25 07:11:14;;;;;;;12.73;6.45;;;;;;;-2.67;47.77;96935.53;3494402;28;20041;-76
2021/12/25 07:13:19;;;;;;;16.15;7.47;;;;;;;-2.65;47.40;96929.16;3484320;28;20397;-77
2021/12/25 07:15:35;;;;;;;16.48;7.50;;;;;;;-2.58;47.44;96931.03;3482200;28;20048;-75
2021/12/25 07:17:34;;;;;;;12.85;6.97;;;;;;;-2.55;47.57;96928.09;3482332;28;20138;-78
2021/12/25 07:19:27;;;;;;;12.75;6.68;;;;;;;-2.53;47.44;96933.91;3495497;28;20052;-73
2021/12/25 07:21:17;;;;;;;13.77;7.28;;;;;;;-2.51;47.84;96924.13;3477210;28;20049;-73
2021/12/25 07:23:17;;;;;;;11.32;6.22;;;;;;;-2.47;47.63;96920.19;3470743;28;20505;-74
2021/12/25 07:25:16;;;;;;;9.90;6.68;;;;;;;-2.46;47.86;96917.38;3470077;28;20132;-76
2021/12/25 07:27:16;;;;;;;11.18;6.45;;;;;;;-2.38;47.85;96919.06;3470905;28;20048;-76
2021/12/25 07:29:08;;;;;;;12.02;6.40;;;;;;;-2.37;47.62;96905.06;3478925;28;20127;-76
2021/12/25 07:30:50;;;;;;;12.00;6.85;;;;;;;-2.33;47.63;96901.06;3481356;28;20091;-75
2021/12/25 07:32:31;;;;;;;10.60;6.63;;;;;;;-2.29;47.86;96907.56;3481759;28;20442;-76
2021/12/25 07:34:12;;;;;;;16.65;7.50;;;;;;;-2.25;47.64;96919.22;3483333;28;20049;-77
2021/12/25 07:35:53;;;;;;;12.75;6.07;;;;;;;-2.24;47.92;96907.03;3494713;28;20036;-76
2021/12/25 07:37:34;;;;;;;14.07;6.95;;;;;;;-2.17;47.90;96920.94;3483132;28;20045;-75
2021/12/25 07:39:15;;;;;;;13.05;7.57;;;;;;;-2.14;47.68;96911.94;3498733;28;20131;-75
2021/12/25 07:40:56;;;;;;;13.32;8.07;;;;;;;-2.10;47.87;96926.25;3495949;28;20098;-75
2021/12/25 07:42:36;;;;;;;10.50;6.63;;;;;;;-2.06;47.81;96917.88;3509008;28;20043;-76
2021/12/25 07:44:34;;;;;;;11.27;6.90;;;;;;;-2.03;47.94;96919.31;3492569;28;20036;-75
2021/12/25 07:46:15;;;;;;;14.20;6.97;;;;;;;-1.98;47.67;96924.78;3494808;28;20145;-75
2021/12/25 07:47:59;;;;;;;12.73;6.93;;;;;;;-1.95;47.76;96907.94;3507598;28;20071;-75
2021/12/25 07:49:40;;;;;;;11.90;7.50;;;;;;;-1.91;47.87;96909.19;3512895;28;20040;-75
2021/12/25 07:51:20;;;;;;;8.82;6.28;;;;;;;-1.87;47.59;96915.66;3511587;28;20048;-75
2021/12/25 07:53:04;;;;;;;12.60;7.50;;;;;;;-1.84;47.59;96910.06;3511713;28;20044;-74
2021/12/25 07:54:44;;;;;;;14.23;8.20;;;;;;;-1.80;47.51;96922.56;3509952;28;20083;-75
2021/12/25 07:56:26;;;;;;;12.73;6.65;;;;;;;-1.78;47.47;96914.56;3497479;28;20041;-75
2021/12/25 07:58:07;;;;;;;;;;;;;;;-1.68;47.84;96906.41;3497928;28;20565;-75
2021/12/25 07:59:48;;;;;;;11.30;6.22;;;;;;;-1.71;47.68;96910.19;3491011;28;19923;-76
2021/12/25 08:01:31;;;;;;;12.43;6.13;;;;;;;-1.69;47.65;96902.19;3515845;28;20042;-75
2021/12/25 08:03:12;;;;;;;14.32;8.18;;;;;;;-1.69;47.42;96902.19;3525856;28;20035;-76
2021/12/25 08:04:53;;;;;;;13.52;6.68;;;;;;;-1.65;47.48;96903.44;3521340;28;20035;-78
2021/12/25 08:06:34;;;;;;;13.30;6.82;;;;;;;-1.61;47.43;96899.47;3511651;28;20064;-75
2021/12/25 08:08:15;;;;;;;11.57;8.03;;;;;;;-1.59;47.77;96898.28;3496585;28;20052;-75
2021/12/25 08:10:03;;;;;;;15.00;7.03;;;;;;;-1.59;47.75;96889.63;3516652;28;20088;-75
2021/12/25 08:11:43;;;;;;;17.45;8.65;;;;;;;-1.59;47.73;96893.06;3525640;28;20055;-76
2021/12/25 08:13:24;;;;;;;10.75;7.03;;;;;;;-1.59;47.65;96905.31;3519575;28;20350;-76
2021/12/25 08:15:05;;;;;;;17.13;7.90;;;;;;;-1.60;47.86;96906.28;3510581;28;20040;-76
2021/12/25 08:16:46;;;;;;;13.98;7.57;;;;;;;-1.62;48.11;96888.22;3511420;28;20413;-75
2021/12/25 08:18:27;;;;;;;12.20;7.57;;;;;;;-1.63;47.80;96893.59;3496452;28;20051;-74
2021/12/25 08:20:27;;;;;;;10.70;6.30;;;;;;;-1.63;47.90;96897.03;3497157;28;20291;-75
2021/12/25 08:22:26;;;;;;;10.50;6.78;;;;;;;-1.59;47.86;96898.28;3497238;28;20052;-76
2021/12/25 08:24:25;;;;;;;12.43;7.43;;;;;;;-1.56;47.67;96891.88;3497515;28;20045;-74
2021/12/25 08:26:24;;;;;;;12.90;7.95;;;;;;;-1.58;48.02;96886.03;3489199;28;20419;-77
2021/12/25 08:28:31;;;;;;;13.07;7.38;;;;;;;-1.52;48.25;96894.91;3466078;28;20064;-78
2021/12/25 08:30:31;;;;;;;18.33;8.02;;;;;;;-1.50;48.08;96892.94;3516255;28;20040;-77
2021/12/25 08:32:40;;;;;;;17.83;8.93;;;;;;;-1.49;48.16;96884.13;3485911;28;20059;-79
2021/12/25 08:34:47;;;;;;;12.93;7.85;;;;;;;-1.49;47.80;96891.94;3484647;28;20102;-76
2021/12/25 08:36:36;;;;;;;17.40;8.45;;;;;;;-1.46;48.00;96876.69;3487869;28;20032;-76
2021/12/25 08:38:17;;;;;;;18.00;8.82;;;;;;;-1.41;48.25;96879.56;3494263;28;20525;-76
2021/12/25 08:39:58;;;;;;;19.02;8.50;;;;;;;-1.36;48.28;96892.84;3489969;28;20036;-77
2021/12/25 08:41:38;;;;;;;16.58;8.02;;;;;;;-1.31;48.13;96884.47;3507984;28;20036;-78
2021/12/25 08:43:24;;;;;;;14.32;8.27;;;;;;;-1.26;48.29;96891.75;3496069;28;20519;-77
2021/12/25 08:45:10;;;;;;;18.48;8.05;;;;;;;-1.20;47.85;96888.38;3517692;28;20043;-77
2021/12/25 08:46:56;;;;;;;14.23;8.55;;;;;;;-1.15;47.89;96886.00;3525005;28;20134;-78
2021/12/25 08:48:36;;;;;;;12.77;8.35;;;;;;;-1.10;47.85;96892.25;3524778;28;20046;-76
2021/12/25 08:50:17;;;;;;;15.60;8.23;;;;;;;-1.05;47.70;96886.47;3523276;28;20490;-78
2021/12/25 08:52:07;;;;;;;15.00;8.45;;;;;;;-1.00;48.08;96884.09;3519700;28;20598;-77
2021/12/25 08:53:47;;;;;;;12.48;7.63;;;;;;;-0.97;48.17;96888.94;3498075;28;20079;-76
2021/12/25 08:55:28;;;;;;;15.18;8.15;;;;;;;-0.91;48.02;96880.31;3503915;28;20032;-76
2021/12/25 08:57:10;;;;;;;15.80;7.63;;;;;;;-0.85;48.13;96891.84;3495889;28;20067;-77
2021/12/25 08:58:51;;;;;;;;;;;;;;;-0.72;47.58;96881.47;3493925;28;20139;-74
2021/12/25 09:00:31;;;;;;;9.57;6.13;;;;;;;-0.74;47.72;96886.06;3509064;28;19916;-77
2021/12/25 09:02:15;;;;;;;11.85;6.80;;;;;;;-0.72;47.89;96884.06;3512747;28;20382;-78
2021/12/25 09:03:57;;;;;;;10.77;7.03;;;;;;;-0.70;47.55;96882.09;3517358;28;20595;-77
2021/12/25 09:05:37;;;;;;;22.40;9.03;;;;;;;-0.68;47.91;96890.50;3497751;28;20036;-75
2021/12/25 09:07:19;;;;;;;12.68;7.13;;;;;;;-0.68;47.64;96880.06;3507960;28;20374;-76
2021/12/25 09:09:00;;;;;;;15.10;7.88;;;;;;;-0.67;47.83;96893.97;3510360;28;20509;-77
2021/12/25 09:10:40;;;;;;;13.70;7.30;;;;;;;-0.66;47.93;96901.59;3509841;28;20036;-75
2021/12/25 09:12:23;;;;;;;10.02;6.82;;;;;;;-0.64;47.89;96884.94;3509999;28;20044;-78
2021/12/25 09:14:05;;;;;;;14.25;6.53;;;;;;;-0.65;47.58;96889.31;3508553;28;20093;-76
2021/12/25 09:15:47;;;;;;;13.05;6.68;;;;;;;-0.62;47.83;96882.91;3505424;28;20159;-74
2021/12/25 09:17:29;;;;;;;10.90;7.32;;;;;;;-0.59;47.57;96891.19;3509296;28;20391;-76
2021/12/25 09:19:10;;;;;;;11.17;7.77;;;;;;;-0.56;47.67;96884.75;3509628;28;20459;-74
2021/12/25 09:20:50;;;;;;;10.32;7.25;;;;;;;-0.53;47.74;96892.22;3487771;28;20040;-75
2021/12/25 09:22:33;;;;;;;9.95;7.32;;;;;;;-0.51;47.31;96893.63;3503609;28;20044;-72
2021/12/25 09:24:15;;;;;;;15.43;7.72;;;;;;;-0.48;47.49;96890.63;3510472;28;20437;-73
2021/12/25 09:25:56;;;;;;;10.45;7.68;;;;;;;-0.43;47.28;96897.91;3510807;28;20048;-72
2021/12/25 09:27:38;;;;;;;13.00;7.65;;;;;;;-0.39;47.52;96901.72;3511036;28;20032;-74
2021/12/25 09:29:20;;;;;;;10.93;7.28;;;;;;;-0.35;47.47;96904.78;3510221;28;20158;-78
2021/12/25 09:31:02;;;;;;;12.20;7.20;;;;;;;-0.35;47.63;96900.34;3509610;28;20128;-76
2021/12/25 09:32:42;;;;;;;12.88;7.10;;;;;;;-0.35;47.55;96896.94;3497624;28;20090;-77